Friday, August 1, 2014, 5:48 AM EDT

KUNV, State College, University Park Airport

Location: State College, PA, United States Lat: 40.85
Local Time: 5:48 AM EDT ( 9:48 GMT) Lon: -77.85
Time Zone: US/Eastern Elev: 1240 ft

Show me the last for .
Show Decoded

2014-08-01 05:35 METAR KUNV 010935Z AUTO 00000KT M1/4SM FG OVC001 14/14 A3017 RMK AO2 P0001
                 T01370137 =
2014-08-01 05:15 METAR KUNV 010915Z AUTO 00000KT M1/4SM FG OVC001 14/14 A3016 RMK AO2 P0001
                 T01360136 =
2014-08-01 04:55 METAR KUNV 010855Z AUTO 00000KT 1/4SM FG OVC001 14/14 A3016 RMK AO2 T01370136 =
2014-08-01 04:35 METAR KUNV 010835Z AUTO 00000KT 1/4SM FG OVC001 14/14 A3016 RMK AO2 T01370136 =
2014-08-01 04:15 METAR KUNV 010815Z AUTO 00000KT M1/4SM FG OVC001 14/14 A3016 RMK AO2 T01390138 =
2014-08-01 03:55 METAR KUNV 010755Z AUTO 00000KT M1/4SM FG OVC001 14/14 A3016 RMK AO2 T01420141 =
2014-08-01 03:35 METAR KUNV 010735Z AUTO 00000KT 1/4SM FG OVC001 15/14 A3016 RMK AO2 T01450143 =
2014-08-01 02:55 METAR KUNV 010655Z AUTO 00000KT 1 1/4SM BR VV007 15/15 A3016 RMK AO2 T01520150 =
2014-08-01 02:35 METAR KUNV 010635Z AUTO 00000KT 2SM BR CLR 15/15 A3016 RMK AO2 T01510150 =
2014-08-01 02:15 METAR KUNV 010615Z AUTO 00000KT 5SM BR CLR 15/14 A3016 RMK AO2 T01510142 =
2014-08-01 01:55 METAR KUNV 010555Z AUTO 00000KT 5SM BR CLR 16/15 A3015 RMK AO2 T01570153 10194
                 20155 =
2014-08-01 01:35 METAR KUNV 010535Z AUTO 00000KT 5SM BR SCT100 16/15 A3016 RMK AO2 T01590152 =
2014-08-01 01:15 METAR KUNV 010515Z AUTO 25003KT 5SM BR SCT100 16/15 A3016 RMK AO2 T01600154 =
2014-08-01 00:55 METAR KUNV 010455Z AUTO 00000KT 5SM BR BKN100 16/16 A3016 RMK AO2 T01620155 =
2014-07-31 23:55 METAR KUNV 010355Z AUTO 00000KT 5SM BR CLR 17/16 A3015 RMK AO2 T01680159
                 402510119 =
2014-07-31 23:35 METAR KUNV 010335Z AUTO 28004KT 7SM CLR 17/16 A3015 RMK AO2 T01710164 =
2014-07-31 23:15 METAR KUNV 010315Z AUTO 26004KT 7SM CLR 18/16 A3015 RMK AO2 T01750161 =
2014-07-31 22:35 METAR KUNV 010235Z AUTO 28003KT 7SM SCT060 BKN110 18/17 A3015 RMK AO2 T01770165
                 =
2014-07-31 22:15 METAR KUNV 010215Z AUTO 00000KT 5SM BR SCT060 OVC110 18/17 A3015 RMK AO2
                 T01770170 =
2014-07-31 21:55 METAR KUNV 010155Z AUTO 00000KT 7SM OVC110 18/17 A3015 RMK AO2 T01810171 =
2014-07-31 21:20 METAR KUNV 010120Z 00000KT 5SM BR SCT060 OVC110 19/17 A3014 =
2014-07-31 20:53 METAR KUNV 010053Z 00000KT 7SM SCT110 19/17 A3014 =
2014-07-31 19:53 METAR KUNV 312353Z 00000KT 10SM SKC 19/17 A3012 =
2014-07-31 18:53 METAR KUNV 312253Z 33005KT 7SM SCT060 BKN090 20/16 A3011 =
2014-07-31 17:53 METAR KUNV 312153Z COR 33005KT 7SM -RA SCT050 BKN055 23/16 A3010 =
2014-07-31 16:53 METAR KUNV 312053Z 24008KT 7SM SCT046 25/16 A3010 =
2014-07-31 15:53 METAR KUNV 311953Z 24008KT 10SM SCT040 SCT049 BKN090 24/17 A3010 =
2014-07-31 14:53 METAR KUNV 311853Z 24005KT 10SM SCT030 23/16 A3010 =
2014-07-31 13:53 METAR KUNV 311753Z 27007KT 10SM SCT040 SCT055 BKN090 22/17 A3011 =
2014-07-31 12:53 METAR KUNV 311653Z 21005KT 10SM SCT020 SCT060 SCT070 21/17 A3011 =
2014-07-31 11:53 METAR KUNV 311553Z 24009KT 10SM SCT022 BKN060 OVC090 20/16 A3012 =
2014-07-31 10:53 METAR KUNV 311453Z 23006KT 7SM SCT014 BKN019 OVC090 17/15 A3012 =
2014-07-31 09:53 METAR KUNV 311353Z COR 21009KT 7SM SCT009 SCT014 BKN037 17/15 A3010 =
2014-07-31 09:23 METAR KUNV 311323Z 24006KT 5SM BR SCT010 16/15 A3010 =
2014-07-31 08:53 METAR KUNV 311253Z 22003KT 5SM BR BKN005 15/14 A3010 =
2014-07-31 08:42 METAR KUNV 311242Z 23003KT 3SM BR BKN003 15/14 A3010 =
2014-07-31 07:53 METAR KUNV 311153Z 21005KT 2 1/2SM BR OVC003 14/14 A3010 =
2014-07-31 07:21 METAR KUNV 311121Z 21004KT 1SM BR OVC001 14/14 A3010 =
2014-07-31 07:07 METAR KUNV 311107Z 21005KT 1/2SM FG OVC001 13/13 A3009 =
2014-07-31 06:53 METAR KUNV 311053Z 23003KT 1/4SM FG OVC001 13/13 A3009 =
2014-07-31 05:53 METAR KUNV 310953Z 00000KT 1/4SM FG OVC001 13/13 A3007 =

Support USWX by starting your Amazon purchase here.